sensor_id;sensor_type;location;lat;lon;timestamp;pressure;altitude;pressure_sealevel;temperature;humidity
68986;BME280;56035;37.534;-122.308;2023-05-16T00:01:09;101557.03;;;20.25;100.00
68986;BME280;56035;37.534;-122.308;2023-05-16T00:03:34;101564.63;;;20.15;100.00
68986;BME280;56035;37.534;-122.308;2023-05-16T00:06:02;101560.25;;;19.93;100.00
68986;BME280;56035;37.534;-122.308;2023-05-16T00:08:28;101561.06;;;19.94;100.00
68986;BME280;56035;37.534;-122.308;2023-05-16T00:10:54;101557.75;;;19.81;100.00
68986;BME280;56035;37.534;-122.308;2023-05-16T00:13:19;101561.94;;;19.89;100.00
68986;BME280;56035;37.534;-122.308;2023-05-16T00:15:49;101562.28;;;19.67;100.00
68986;BME280;56035;37.534;-122.308;2023-05-16T00:18:16;101552.47;;;19.75;100.00
68986;BME280;56035;37.534;-122.308;2023-05-16T00:20:43;101557.22;;;19.74;100.00
68986;BME280;56035;37.534;-122.308;2023-05-16T00:23:09;101556.66;;;19.77;100.00
68986;BME280;56035;37.534;-122.308;2023-05-16T00:25:35;101563.66;;;19.75;100.00
68986;BME280;56035;37.534;-122.308;2023-05-16T00:28:01;101556.97;;;19.71;100.00
68986;BME280;56035;37.534;-122.308;2023-05-16T00:30:27;101550.84;;;19.63;100.00
68986;BME280;56035;37.534;-122.308;2023-05-16T00:32:53;101563.94;;;19.58;100.00
68986;BME280;56035;37.534;-122.308;2023-05-16T00:35:19;101557.84;;;19.56;100.00
68986;BME280;56035;37.534;-122.308;2023-05-16T00:37:45;101565.34;;;19.55;100.00
68986;BME280;56035;37.534;-122.308;2023-05-16T00:40:11;101560.34;;;19.52;100.00
68986;BME280;56035;37.534;-122.308;2023-05-16T00:42:37;101572.09;;;19.44;100.00
68986;BME280;56035;37.534;-122.308;2023-05-16T00:45:04;101570.16;;;19.34;100.00
68986;BME280;56035;37.534;-122.308;2023-05-16T00:47:30;101566.25;;;19.25;100.00
68986;BME280;56035;37.534;-122.308;2023-05-16T00:49:56;101563.75;;;19.08;100.00
68986;BME280;56035;37.534;-122.308;2023-05-16T00:52:22;101560.13;;;18.98;100.00
68986;BME280;56035;37.534;-122.308;2023-05-16T00:54:49;101559.56;;;18.90;100.00
68986;BME280;56035;37.534;-122.308;2023-05-16T00:57:15;101558.44;;;18.76;100.00
68986;BME280;56035;37.534;-122.308;2023-05-16T00:59:41;101557.56;;;18.65;100.00
68986;BME280;56035;37.534;-122.308;2023-05-16T01:02:08;101555.06;;;18.64;100.00
68986;BME280;56035;37.534;-122.308;2023-05-16T01:04:34;101545.00;;;18.58;100.00
68986;BME280;56035;37.534;-122.308;2023-05-16T01:07:00;101544.69;;;18.44;100.00
68986;BME280;56035;37.534;-122.308;2023-05-16T01:09:26;101541.31;;;18.32;100.00
68986;BME280;56035;37.534;-122.308;2023-05-16T01:14:21;101536.25;;;18.23;100.00
68986;BME280;56035;37.534;-122.308;2023-05-16T01:19:44;101540.38;;;18.00;100.00
68986;BME280;56035;37.534;-122.308;2023-05-16T01:22:15;101548.16;;;17.93;100.00
68986;BME280;56035;37.534;-122.308;2023-05-16T01:24:56;101548.69;;;17.90;100.00
68986;BME280;56035;37.534;-122.308;2023-05-16T01:27:26;101548.66;;;17.85;100.00
68986;BME280;56035;37.534;-122.308;2023-05-16T01:29:57;101541.94;;;17.76;100.00
68986;BME280;56035;37.534;-122.308;2023-05-16T01:32:23;101546.88;;;17.69;100.00
68986;BME280;56035;37.534;-122.308;2023-05-16T01:34:49;101549.06;;;17.62;100.00
68986;BME280;56035;37.534;-122.308;2023-05-16T01:39:43;101550.69;;;17.47;100.00
68986;BME280;56035;37.534;-122.308;2023-05-16T01:42:13;101548.44;;;17.44;100.00
68986;BME280;56035;37.534;-122.308;2023-05-16T01:47:07;101553.13;;;17.39;100.00
68986;BME280;56035;37.534;-122.308;2023-05-16T01:50:19;101546.13;;;17.36;100.00
68986;BME280;56035;37.534;-122.308;2023-05-16T01:52:34;101553.34;;;17.32;100.00
68986;BME280;56035;37.534;-122.308;2023-05-16T01:55:02;101544.41;;;17.25;100.00
68986;BME280;56035;37.534;-122.308;2023-05-16T01:57:29;101542.69;;;17.19;100.00
68986;BME280;56035;37.534;-122.308;2023-05-16T01:59:56;101545.09;;;17.05;100.00
68986;BME280;56035;37.534;-122.308;2023-05-16T02:02:23;101541.41;;;16.94;100.00
68986;BME280;56035;37.534;-122.308;2023-05-16T02:04:49;101538.19;;;16.80;100.00
68986;BME280;56035;37.534;-122.308;2023-05-16T02:07:15;101538.59;;;16.67;100.00
68986;BME280;56035;37.534;-122.308;2023-05-16T02:09:41;101535.47;;;16.58;100.00
68986;BME280;56035;37.534;-122.308;2023-05-16T02:12:07;101533.06;;;16.40;100.00
68986;BME280;56035;37.534;-122.308;2023-05-16T02:14:32;101542.13;;;16.30;100.00
68986;BME280;56035;37.534;-122.308;2023-05-16T02:16:58;101539.25;;;16.20;100.00
68986;BME280;56035;37.534;-122.308;2023-05-16T02:19:24;101549.22;;;16.16;100.00
68986;BME280;56035;37.534;-122.308;2023-05-16T02:21:50;101547.16;;;16.06;100.00
68986;BME280;56035;37.534;-122.308;2023-05-16T02:24:16;101542.44;;;15.85;100.00
68986;BME280;56035;37.534;-122.308;2023-05-16T02:26:41;101544.31;;;15.79;100.00
68986;BME280;56035;37.534;-122.308;2023-05-16T02:29:08;101551.66;;;15.68;100.00
68986;BME280;56035;37.534;-122.308;2023-05-16T02:31:34;101551.97;;;15.50;100.00
68986;BME280;56035;37.534;-122.308;2023-05-16T02:34:00;101547.66;;;15.42;100.00
68986;BME280;56035;37.534;-122.308;2023-05-16T02:36:26;101555.84;;;15.32;100.00
68986;BME280;56035;37.534;-122.308;2023-05-16T02:38:52;101556.28;;;15.24;100.00
68986;BME280;56035;37.534;-122.308;2023-05-16T02:41:18;101568.56;;;15.11;100.00
68986;BME280;56035;37.534;-122.308;2023-05-16T02:43:46;101572.25;;;15.00;100.00
68986;BME280;56035;37.534;-122.308;2023-05-16T02:46:22;101567.03;;;14.87;100.00
68986;BME280;56035;37.534;-122.308;2023-05-16T02:48:48;101565.78;;;14.78;100.00
68986;BME280;56035;37.534;-122.308;2023-05-16T02:51:15;101570.31;;;14.67;100.00
68986;BME280;56035;37.534;-122.308;2023-05-16T02:53:41;101565.91;;;14.54;100.00
68986;BME280;56035;37.534;-122.308;2023-05-16T02:56:06;101566.03;;;14.47;100.00
68986;BME280;56035;37.534;-122.308;2023-05-16T02:58:33;101576.59;;;14.34;100.00
68986;BME280;56035;37.534;-122.308;2023-05-16T03:00:58;101574.94;;;14.21;100.00
68986;BME280;56035;37.534;-122.308;2023-05-16T03:03:24;101570.16;;;14.16;100.00
68986;BME280;56035;37.534;-122.308;2023-05-16T03:05:50;101578.84;;;14.08;100.00
68986;BME280;56035;37.534;-122.308;2023-05-16T03:08:16;101573.34;;;13.96;100.00
68986;BME280;56035;37.534;-122.308;2023-05-16T03:10:42;101571.78;;;13.89;100.00
68986;BME280;56035;37.534;-122.308;2023-05-16T03:13:08;101572.53;;;13.84;100.00
68986;BME280;56035;37.534;-122.308;2023-05-16T03:15:34;101586.59;;;13.82;100.00
68986;BME280;56035;37.534;-122.308;2023-05-16T03:18:00;101585.31;;;13.73;100.00
68986;BME280;56035;37.534;-122.308;2023-05-16T03:20:25;101590.72;;;13.68;100.00
68986;BME280;56035;37.534;-122.308;2023-05-16T03:22:51;101585.69;;;13.65;100.00
68986;BME280;56035;37.534;-122.308;2023-05-16T03:25:17;101588.31;;;13.60;100.00
68986;BME280;56035;37.534;-122.308;2023-05-16T03:27:43;101593.41;;;13.51;100.00
68986;BME280;56035;37.534;-122.308;2023-05-16T03:30:08;101593.53;;;13.45;100.00
68986;BME280;56035;37.534;-122.308;2023-05-16T03:32:36;101598.72;;;13.41;100.00
68986;BME280;56035;37.534;-122.308;2023-05-16T03:35:02;101602.44;;;13.35;100.00
68986;BME280;56035;37.534;-122.308;2023-05-16T03:37:28;101602.53;;;13.28;100.00
68986;BME280;56035;37.534;-122.308;2023-05-16T03:39:53;101599.59;;;13.23;100.00
68986;BME280;56035;37.534;-122.308;2023-05-16T03:42:19;101607.19;;;13.16;100.00
68986;BME280;56035;37.534;-122.308;2023-05-16T03:44:45;101612.59;;;13.11;100.00
68986;BME280;56035;37.534;-122.308;2023-05-16T03:47:11;101611.38;;;13.07;100.00
68986;BME280;56035;37.534;-122.308;2023-05-16T03:49:37;101612.56;;;12.99;100.00
68986;BME280;56035;37.534;-122.308;2023-05-16T03:52:03;101611.59;;;12.94;100.00
68986;BME280;56035;37.534;-122.308;2023-05-16T03:54:29;101620.00;;;12.87;100.00
68986;BME280;56035;37.534;-122.308;2023-05-16T03:56:55;101620.72;;;12.82;100.00
68986;BME280;56035;37.534;-122.308;2023-05-16T03:59:21;101628.50;;;12.74;100.00
68986;BME280;56035;37.534;-122.308;2023-05-16T04:01:46;101633.41;;;12.72;100.00
68986;BME280;56035;37.534;-122.308;2023-05-16T04:04:12;101633.50;;;12.65;100.00
68986;BME280;56035;37.534;-122.308;2023-05-16T04:06:38;101625.09;;;12.60;100.00
68986;BME280;56035;37.534;-122.308;2023-05-16T04:09:04;101644.06;;;12.56;100.00
68986;BME280;56035;37.534;-122.308;2023-05-16T04:11:30;101645.84;;;12.51;100.00
68986;BME280;56035;37.534;-122.308;2023-05-16T04:13:56;101653.13;;;12.45;100.00
68986;BME280;56035;37.534;-122.308;2023-05-16T04:16:23;101654.31;;;12.37;100.00
68986;BME280;56035;37.534;-122.308;2023-05-16T04:18:49;101658.63;;;12.33;100.00
68986;BME280;56035;37.534;-122.308;2023-05-16T04:21:16;101656.31;;;12.30;100.00
68986;BME280;56035;37.534;-122.308;2023-05-16T04:23:42;101654.00;;;12.27;100.00
68986;BME280;56035;37.534;-122.308;2023-05-16T04:26:07;101658.53;;;12.22;100.00
68986;BME280;56035;37.534;-122.308;2023-05-16T04:28:34;101654.56;;;12.17;100.00
68986;BME280;56035;37.534;-122.308;2023-05-16T04:31:00;101665.59;;;12.17;100.00
68986;BME280;56035;37.534;-122.308;2023-05-16T04:33:26;101664.38;;;12.13;100.00
68986;BME280;56035;37.534;-122.308;2023-05-16T04:35:52;101660.75;;;12.13;100.00
68986;BME280;56035;37.534;-122.308;2023-05-16T04:38:19;101657.41;;;12.11;100.00
68986;BME280;56035;37.534;-122.308;2023-05-16T04:40:44;101656.41;;;12.05;100.00
68986;BME280;56035;37.534;-122.308;2023-05-16T04:43:13;101657.09;;;12.01;100.00
68986;BME280;56035;37.534;-122.308;2023-05-16T04:45:39;101662.00;;;11.99;100.00
68986;BME280;56035;37.534;-122.308;2023-05-16T04:48:07;101656.72;;;11.97;100.00
68986;BME280;56035;37.534;-122.308;2023-05-16T04:50:33;101660.16;;;11.92;100.00
68986;BME280;56035;37.534;-122.308;2023-05-16T04:52:58;101661.22;;;11.91;100.00
68986;BME280;56035;37.534;-122.308;2023-05-16T04:55:24;101658.31;;;11.86;100.00
68986;BME280;56035;37.534;-122.308;2023-05-16T04:57:50;101660.66;;;11.83;100.00
68986;BME280;56035;37.534;-122.308;2023-05-16T05:00:16;101655.56;;;11.80;100.00
68986;BME280;56035;37.534;-122.308;2023-05-16T05:02:42;101659.03;;;11.75;100.00
68986;BME280;56035;37.534;-122.308;2023-05-16T05:05:08;101666.09;;;11.71;100.00
68986;BME280;56035;37.534;-122.308;2023-05-16T05:07:34;101666.75;;;11.66;100.00
68986;BME280;56035;37.534;-122.308;2023-05-16T05:10:00;101661.94;;;11.62;100.00
68986;BME280;56035;37.534;-122.308;2023-05-16T05:12:26;101670.28;;;11.55;100.00
68986;BME280;56035;37.534;-122.308;2023-05-16T05:14:52;101682.59;;;11.53;100.00
68986;BME280;56035;37.534;-122.308;2023-05-16T05:17:18;101682.44;;;11.47;100.00
68986;BME280;56035;37.534;-122.308;2023-05-16T05:19:45;101680.16;;;11.44;100.00
68986;BME280;56035;37.534;-122.308;2023-05-16T05:22:11;101678.88;;;11.40;100.00
68986;BME280;56035;37.534;-122.308;2023-05-16T05:24:37;101678.03;;;11.40;100.00
68986;BME280;56035;37.534;-122.308;2023-05-16T05:27:02;101678.72;;;11.35;100.00
68986;BME280;56035;37.534;-122.308;2023-05-16T05:29:28;101681.94;;;11.32;100.00
68986;BME280;56035;37.534;-122.308;2023-05-16T05:31:54;101670.72;;;11.27;100.00
68986;BME280;56035;37.534;-122.308;2023-05-16T05:34:20;101674.56;;;11.26;100.00
68986;BME280;56035;37.534;-122.308;2023-05-16T05:36:46;101665.03;;;11.22;100.00
68986;BME280;56035;37.534;-122.308;2023-05-16T05:39:11;101675.44;;;11.20;100.00
68986;BME280;56035;37.534;-122.308;2023-05-16T05:41:37;101663.38;;;11.14;100.00
68986;BME280;56035;37.534;-122.308;2023-05-16T05:44:04;101655.81;;;11.10;100.00
68986;BME280;56035;37.534;-122.308;2023-05-16T05:46:30;101660.69;;;11.08;100.00
68986;BME280;56035;37.534;-122.308;2023-05-16T05:48:56;101655.84;;;11.03;100.00
68986;BME280;56035;37.534;-122.308;2023-05-16T05:51:22;101655.84;;;11.03;100.00
68986;BME280;56035;37.534;-122.308;2023-05-16T05:53:47;101662.88;;;10.99;100.00
68986;BME280;56035;37.534;-122.308;2023-05-16T05:56:14;101649.56;;;10.96;100.00
68986;BME280;56035;37.534;-122.308;2023-05-16T05:58:40;101648.72;;;10.95;100.00
68986;BME280;56035;37.534;-122.308;2023-05-16T06:01:10;101657.44;;;10.92;100.00
68986;BME280;56035;37.534;-122.308;2023-05-16T06:03:35;101653.19;;;10.90;100.00
68986;BME280;56035;37.534;-122.308;2023-05-16T06:06:02;101656.38;;;10.87;100.00
68986;BME280;56035;37.534;-122.308;2023-05-16T06:08:28;101650.47;;;10.83;100.00
68986;BME280;56035;37.534;-122.308;2023-05-16T06:10:54;101647.31;;;10.80;100.00
68986;BME280;56035;37.534;-122.308;2023-05-16T06:13:20;101648.63;;;10.77;100.00
68986;BME280;56035;37.534;-122.308;2023-05-16T06:15:54;101646.94;;;10.76;100.00
68986;BME280;56035;37.534;-122.308;2023-05-16T06:18:20;101648.84;;;10.69;100.00
68986;BME280;56035;37.534;-122.308;2023-05-16T06:20:46;101644.03;;;10.64;100.00
68986;BME280;56035;37.534;-122.308;2023-05-16T06:23:12;101649.13;;;10.61;100.00
68986;BME280;56035;37.534;-122.308;2023-05-16T06:25:38;101659.13;;;10.55;100.00
68986;BME280;56035;37.534;-122.308;2023-05-16T06:28:04;101653.19;;;10.51;100.00
68986;BME280;56035;37.534;-122.308;2023-05-16T06:30:30;101658.31;;;10.48;100.00
68986;BME280;56035;37.534;-122.308;2023-05-16T06:32:56;101654.31;;;10.44;100.00
68986;BME280;56035;37.534;-122.308;2023-05-16T06:35:21;101654.94;;;10.39;100.00
68986;BME280;56035;37.534;-122.308;2023-05-16T06:37:47;101655.38;;;10.36;100.00
68986;BME280;56035;37.534;-122.308;2023-05-16T06:40:13;101659.66;;;10.32;100.00
68986;BME280;56035;37.534;-122.308;2023-05-16T06:42:39;101650.16;;;10.28;100.00
68986;BME280;56035;37.534;-122.308;2023-05-16T06:45:05;101656.06;;;10.25;100.00
68986;BME280;56035;37.534;-122.308;2023-05-16T06:47:31;101657.97;;;10.24;100.00
68986;BME280;56035;37.534;-122.308;2023-05-16T06:49:57;101650.34;;;10.20;100.00
68986;BME280;56035;37.534;-122.308;2023-05-16T06:52:22;101654.59;;;10.16;100.00
68986;BME280;56035;37.534;-122.308;2023-05-16T06:54:48;101656.50;;;10.15;100.00
68986;BME280;56035;37.534;-122.308;2023-05-16T06:57:14;101660.53;;;10.13;100.00
68986;BME280;56035;37.534;-122.308;2023-05-16T06:59:40;101657.19;;;10.11;100.00
68986;BME280;56035;37.534;-122.308;2023-05-16T07:02:06;101657.63;;;10.07;100.00
68986;BME280;56035;37.534;-122.308;2023-05-16T07:04:32;101655.91;;;10.06;100.00
68986;BME280;56035;37.534;-122.308;2023-05-16T07:07:00;101657.63;;;10.07;100.00
68986;BME280;56035;37.534;-122.308;2023-05-16T07:09:26;101661.41;;;10.06;100.00
68986;BME280;56035;37.534;-122.308;2023-05-16T07:11:52;101657.41;;;10.02;100.00
68986;BME280;56035;37.534;-122.308;2023-05-16T07:14:18;101661.03;;;9.96;100.00
68986;BME280;56035;37.534;-122.308;2023-05-16T07:16:44;101663.16;;;9.94;100.00
68986;BME280;56035;37.534;-122.308;2023-05-16T07:19:09;101649.59;;;9.93;100.00
68986;BME280;56035;37.534;-122.308;2023-05-16T07:21:35;101651.72;;;9.91;100.00
68986;BME280;56035;37.534;-122.308;2023-05-16T07:24:01;101651.09;;;9.89;100.00
68986;BME280;56035;37.534;-122.308;2023-05-16T07:26:27;101651.31;;;9.87;100.00
68986;BME280;56035;37.534;-122.308;2023-05-16T07:28:53;101648.97;;;9.84;100.00
68986;BME280;56035;37.534;-122.308;2023-05-16T07:31:19;101658.09;;;9.84;100.00
68986;BME280;56035;37.534;-122.308;2023-05-16T07:33:45;101649.44;;;9.81;100.00
68986;BME280;56035;37.534;-122.308;2023-05-16T07:36:11;101649.00;;;9.77;100.00
68986;BME280;56035;37.534;-122.308;2023-05-16T07:38:37;101641.63;;;9.78;100.00
68986;BME280;56035;37.534;-122.308;2023-05-16T07:41:04;101646.25;;;9.77;100.00
68986;BME280;56035;37.534;-122.308;2023-05-16T07:43:30;101643.06;;;9.74;100.00
68986;BME280;56035;37.534;-122.308;2023-05-16T07:45:56;101655.16;;;9.73;100.00
68986;BME280;56035;37.534;-122.308;2023-05-16T07:48:22;101651.16;;;9.69;100.00
68986;BME280;56035;37.534;-122.308;2023-05-16T07:50:48;101639.50;;;9.67;100.00
68986;BME280;56035;37.534;-122.308;2023-05-16T07:53:13;101646.06;;;9.66;100.00
68986;BME280;56035;37.534;-122.308;2023-05-16T07:55:39;101643.31;;;9.66;100.00
68986;BME280;56035;37.534;-122.308;2023-05-16T07:58:05;101644.56;;;9.70;100.00
68986;BME280;56035;37.534;-122.308;2023-05-16T08:00:31;101642.03;;;9.75;100.00
68986;BME280;56035;37.534;-122.308;2023-05-16T08:02:57;101641.38;;;9.79;100.00
68986;BME280;56035;37.534;-122.308;2023-05-16T08:05:22;101649.41;;;9.88;100.00
68986;BME280;56035;37.534;-122.308;2023-05-16T08:07:48;101641.75;;;9.96;100.00
68986;BME280;56035;37.534;-122.308;2023-05-16T08:10:14;101647.44;;;10.08;100.00
68986;BME280;56035;37.534;-122.308;2023-05-16T08:12:40;101641.91;;;10.15;100.00
68986;BME280;56035;37.534;-122.308;2023-05-16T08:15:06;101647.81;;;10.18;100.00
68986;BME280;56035;37.534;-122.308;2023-05-16T08:17:32;101653.31;;;10.25;100.00
68986;BME280;56035;37.534;-122.308;2023-05-16T08:19:58;101648.63;;;10.32;100.00
68986;BME280;56035;37.534;-122.308;2023-05-16T08:22:26;101649.44;;;10.39;100.00
68986;BME280;56035;37.534;-122.308;2023-05-16T08:24:52;101651.31;;;10.45;100.00
68986;BME280;56035;37.534;-122.308;2023-05-16T08:27:25;101647.06;;;10.49;100.00
68986;BME280;56035;37.534;-122.308;2023-05-16T08:29:51;101647.25;;;10.54;100.00
68986;BME280;56035;37.534;-122.308;2023-05-16T08:32:16;101634.91;;;10.64;100.00
68986;BME280;56035;37.534;-122.308;2023-05-16T08:34:42;101639.94;;;10.73;100.00
68986;BME280;56035;37.534;-122.308;2023-05-16T08:37:08;101650.09;;;10.80;100.00
68986;BME280;56035;37.534;-122.308;2023-05-16T08:39:35;101647.88;;;10.88;100.00
68986;BME280;56035;37.534;-122.308;2023-05-16T08:42:01;101634.28;;;10.93;100.00
68986;BME280;56035;37.534;-122.308;2023-05-16T08:44:27;101636.75;;;11.01;100.00
68986;BME280;56035;37.534;-122.308;2023-05-16T08:46:53;101635.41;;;11.11;100.00
68986;BME280;56035;37.534;-122.308;2023-05-16T08:49:19;101634.75;;;11.15;100.00
68986;BME280;56035;37.534;-122.308;2023-05-16T08:51:46;101635.75;;;11.21;100.00
68986;BME280;56035;37.534;-122.308;2023-05-16T08:54:13;101640.38;;;11.27;100.00
68986;BME280;56035;37.534;-122.308;2023-05-16T08:56:43;101642.03;;;11.35;100.00
68986;BME280;56035;37.534;-122.308;2023-05-16T08:59:10;101639.22;;;11.41;100.00
68986;BME280;56035;37.534;-122.308;2023-05-16T09:01:36;101638.75;;;11.44;100.00
68986;BME280;56035;37.534;-122.308;2023-05-16T09:04:05;101633.78;;;11.53;100.00
68986;BME280;56035;37.534;-122.308;2023-05-16T09:06:31;101628.63;;;11.57;100.00
68986;BME280;56035;37.534;-122.308;2023-05-16T09:09:17;101634.72;;;11.65;100.00
68986;BME280;56035;37.534;-122.308;2023-05-16T09:11:43;101633.81;;;11.71;100.00
68986;BME280;56035;37.534;-122.308;2023-05-16T09:14:09;101632.50;;;11.74;100.00
68986;BME280;56035;37.534;-122.308;2023-05-16T09:16:35;101630.97;;;11.78;100.00
68986;BME280;56035;37.534;-122.308;2023-05-16T09:19:01;101625.00;;;11.81;100.00
68986;BME280;56035;37.534;-122.308;2023-05-16T09:21:29;101624.13;;;11.87;100.00
68986;BME280;56035;37.534;-122.308;2023-05-16T09:23:56;101615.97;;;11.92;100.00
68986;BME280;56035;37.534;-122.308;2023-05-16T09:26:26;101618.91;;;11.98;100.00
68986;BME280;56035;37.534;-122.308;2023-05-16T09:28:53;101625.88;;;12.00;100.00
68986;BME280;56035;37.534;-122.308;2023-05-16T09:31:21;101619.28;;;12.01;100.00
68986;BME280;56035;37.534;-122.308;2023-05-16T09:33:47;101620.94;;;12.02;100.00
68986;BME280;56035;37.534;-122.308;2023-05-16T09:36:14;101623.72;;;12.02;100.00
68986;BME280;56035;37.534;-122.308;2023-05-16T09:38:40;101622.63;;;12.03;100.00
68986;BME280;56035;37.534;-122.308;2023-05-16T09:41:08;101630.69;;;12.05;100.00
68986;BME280;56035;37.534;-122.308;2023-05-16T09:43:37;101631.06;;;12.08;100.00
68986;BME280;56035;37.534;-122.308;2023-05-16T09:46:03;101627.63;;;12.13;100.00
68986;BME280;56035;37.534;-122.308;2023-05-16T09:48:28;101627.16;;;12.16;100.00
68986;BME280;56035;37.534;-122.308;2023-05-16T09:50:54;101625.00;;;12.18;100.00
68986;BME280;56035;37.534;-122.308;2023-05-16T09:53:25;101631.16;;;12.20;100.00
68986;BME280;56035;37.534;-122.308;2023-05-16T09:56:09;101630.06;;;12.21;100.00
68986;BME280;56035;37.534;-122.308;2023-05-16T09:58:35;101629.44;;;12.19;100.00
68986;BME280;56035;37.534;-122.308;2023-05-16T10:01:02;101627.53;;;12.19;100.00
68986;BME280;56035;37.534;-122.308;2023-05-16T10:03:28;101616.72;;;12.18;100.00
68986;BME280;56035;37.534;-122.308;2023-05-16T10:05:54;101621.41;;;12.17;100.00
68986;BME280;56035;37.534;-122.308;2023-05-16T10:08:21;101612.28;;;12.17;100.00
68986;BME280;56035;37.534;-122.308;2023-05-16T10:10:50;101610.19;;;12.12;100.00
68986;BME280;56035;37.534;-122.308;2023-05-16T10:13:18;101608.28;;;12.13;100.00
68986;BME280;56035;37.534;-122.308;2023-05-16T10:15:45;101611.91;;;12.13;100.00
68986;BME280;56035;37.534;-122.308;2023-05-16T10:18:11;101607.22;;;12.14;100.00
68986;BME280;56035;37.534;-122.308;2023-05-16T10:20:38;101610.19;;;12.12;100.00
68986;BME280;56035;37.534;-122.308;2023-05-16T10:23:06;101601.06;;;12.12;100.00
68986;BME280;56035;37.534;-122.308;2023-05-16T10:25:38;101603.84;;;12.12;100.00
68986;BME280;56035;37.534;-122.308;2023-05-16T10:28:05;101606.38;;;12.13;100.00
68986;BME280;56035;37.534;-122.308;2023-05-16T10:30:34;101602.75;;;12.13;100.00
68986;BME280;56035;37.534;-122.308;2023-05-16T10:33:01;101598.31;;;12.12;100.00
68986;BME280;56035;37.534;-122.308;2023-05-16T10:35:29;101596.63;;;12.11;100.00
68986;BME280;56035;37.534;-122.308;2023-05-16T10:37:55;101592.78;;;12.12;100.00
68986;BME280;56035;37.534;-122.308;2023-05-16T10:40:22;101599.41;;;12.11;100.00
68986;BME280;56035;37.534;-122.308;2023-05-16T10:42:58;101602.16;;;12.11;100.00
68986;BME280;56035;37.534;-122.308;2023-05-16T10:45:25;101601.91;;;12.12;100.00
68986;BME280;56035;37.534;-122.308;2023-05-16T10:47:54;101598.78;;;12.09;100.00
68986;BME280;56035;37.534;-122.308;2023-05-16T10:50:30;101602.38;;;12.09;100.00
68986;BME280;56035;37.534;-122.308;2023-05-16T10:53:10;101606.00;;;12.10;100.00
68986;BME280;56035;37.534;-122.308;2023-05-16T10:55:37;101591.69;;;12.13;100.00
68986;BME280;56035;37.534;-122.308;2023-05-16T10:58:03;101590.28;;;12.10;100.00
68986;BME280;56035;37.534;-122.308;2023-05-16T11:00:29;101587.72;;;12.09;100.00
68986;BME280;56035;37.534;-122.308;2023-05-16T11:03:03;101583.91;;;12.10;100.00
68986;BME280;56035;37.534;-122.308;2023-05-16T11:05:29;101583.91;;;12.10;100.00
68986;BME280;56035;37.534;-122.308;2023-05-16T11:08:05;101581.75;;;12.12;100.00
68986;BME280;56035;37.534;-122.308;2023-05-16T11:10:31;101590.03;;;12.12;100.00
68986;BME280;56035;37.534;-122.308;2023-05-16T11:13:06;101580.06;;;12.11;100.00
68986;BME280;56035;37.534;-122.308;2023-05-16T11:15:32;101585.97;;;12.14;100.00
68986;BME280;56035;37.534;-122.308;2023-05-16T11:18:08;101584.28;;;12.13;100.00
68986;BME280;56035;37.534;-122.308;2023-05-16T11:20:37;101587.25;;;12.12;100.00
68986;BME280;56035;37.534;-122.308;2023-05-16T11:25:41;101586.44;;;12.11;100.00
68986;BME280;56035;37.534;-122.308;2023-05-16T11:28:07;101584.28;;;12.13;100.00
68986;BME280;56035;37.534;-122.308;2023-05-16T11:30:34;101584.88;;;12.15;100.00
68986;BME280;56035;37.534;-122.308;2023-05-16T11:33:01;101586.19;;;12.13;100.00
68986;BME280;56035;37.534;-122.308;2023-05-16T11:35:26;101590.66;;;12.14;100.00
68986;BME280;56035;37.534;-122.308;2023-05-16T11:37:53;101584.66;;;12.17;100.00
68986;BME280;56035;37.534;-122.308;2023-05-16T11:40:19;101588.09;;;12.12;100.00
68986;BME280;56035;37.534;-122.308;2023-05-16T11:42:46;101577.06;;;12.12;100.00
68986;BME280;56035;37.534;-122.308;2023-05-16T11:45:16;101586.19;;;12.13;100.00
68986;BME280;56035;37.534;-122.308;2023-05-16T11:47:44;101581.28;;;12.15;100.00
68986;BME280;56035;37.534;-122.308;2023-05-16T11:50:12;101581.28;;;12.15;100.00
68986;BME280;56035;37.534;-122.308;2023-05-16T11:52:38;101587.44;;;12.17;100.00
68986;BME280;56035;37.534;-122.308;2023-05-16T11:55:05;101581.91;;;12.17;100.00
68986;BME280;56035;37.534;-122.308;2023-05-16T11:57:31;101579.97;;;12.17;100.00
68986;BME280;56035;37.534;-122.308;2023-05-16T12:00:01;101581.66;;;12.18;100.00
68986;BME280;56035;37.534;-122.308;2023-05-16T12:02:28;101582.50;;;12.19;100.00
68986;BME280;56035;37.534;-122.308;2023-05-16T12:04:54;101581.66;;;12.18;100.00
68986;BME280;56035;37.534;-122.308;2023-05-16T12:07:20;101582.81;;;12.11;100.00
68986;BME280;56035;37.534;-122.308;2023-05-16T12:09:52;101584.38;;;12.07;100.00
68986;BME280;56035;37.534;-122.308;2023-05-16T12:12:19;101580.06;;;12.11;100.00
68986;BME280;56035;37.534;-122.308;2023-05-16T12:14:45;101580.28;;;12.09;100.00
68986;BME280;56035;37.534;-122.308;2023-05-16T12:17:11;101575.00;;;12.08;100.00
68986;BME280;56035;37.534;-122.308;2023-05-16T12:19:37;101577.44;;;12.16;100.00
68986;BME280;56035;37.534;-122.308;2023-05-16T12:22:03;101573.25;;;12.13;100.00